Time;durP1;ratioP1;P1;durP2;ratioP2;P2;SDS_P1;SDS_P2;PMS_P1;PMS_P2;Temp;Humidity;BMP_temperature;BMP_pressure;BME280_temperature;BME280_humidity;BME280_pressure;Samples;Min_cycle;Max_cycle;Signal;HPM_P1;HPM_P2
2022/05/30 00:00:28;;;;;;;7.18;4.97;;;;;;;;;;10275145;28;20041;-61
2022/05/30 00:05:29;;;;;;;6.65;4.65;;;;;;;;;;10277542;28;20076;-62
2022/05/30 00:10:28;;;;;;;5.70;4.78;;;;;;;;;;10284221;28;20053;-62
2022/05/30 00:15:29;;;;;;;5.78;4.25;;;;;;;;;;10283988;28;20518;-62
2022/05/30 00:20:27;;;;;;;6.50;4.82;;;;;;;;;;10284016;28;20040;-61
2022/05/30 00:25:26;;;;;;;5.13;4.35;;;;;;;;;;10282095;28;20422;-61
2022/05/30 00:30:24;;;;;;;5.53;4.68;;;;;;;;;;10282472;28;20080;-61
2022/05/30 00:35:24;;;;;;;5.03;4.53;;;;;;;;;;10281244;28;20067;-62
2022/05/30 00:40:22;;;;;;;5.60;4.25;;;;;;;;;;10282997;28;20049;-62
2022/05/30 00:45:20;;;;;;;5.70;4.22;;;;;;;;;;10282837;28;20073;-62
2022/05/30 00:50:19;;;;;;;5.45;4.53;;;;;;;;;;10281675;28;20049;-61
2022/05/30 00:55:20;;;;;;;4.75;4.22;;;;;;;;;;10282361;28;20413;-61
2022/05/30 01:00:20;;;;;;;8.00;4.68;;;;;;;;;;10281357;28;20053;-61
2022/05/30 01:10:34;;;;;;;11.63;4.28;;;;;;;;;;10247842;28;20551;-61
2022/05/30 01:15:33;;;;;;;10.65;4.93;;;;;;;;;;10280219;28;20041;-61
2022/05/30 01:20:44;;;;;;;7.68;4.20;;;;;;;;;;10280455;28;20049;-61
2022/05/30 01:25:51;;;;;;;8.95;6.25;;;;;;;;;;10281418;28;20083;-61
2022/05/30 01:30:58;;;;;;;10.30;5.57;;;;;;;;;;10280069;28;20057;-61
2022/05/30 01:35:56;;;;;;;5.40;4.70;;;;;;;;;;10279877;28;20048;-61
2022/05/30 01:40:55;;;;;;;5.97;4.78;;;;;;;;;;10279549;28;20052;-61
2022/05/30 01:45:55;;;;;;;10.73;5.75;;;;;;;;;;10279244;28;20064;-62
2022/05/30 01:50:57;;;;;;;8.30;4.88;;;;;;;;;;10279051;28;20060;-61
2022/05/30 01:55:59;;;;;;;7.53;5.60;;;;;;;;;;10279022;28;20064;-61
2022/05/30 02:00:57;;;;;;;8.68;5.18;;;;;;;;;;10278853;28;20052;-62
2022/05/30 02:05:57;;;;;;;6.05;5.47;;;;;;;;;;10278496;28;20080;-61
2022/05/30 02:10:56;;;;;;;6.55;4.93;;;;;;;;;;10278355;28;20048;-61
2022/05/30 02:21:12;;;;;;;7.07;5.88;;;;;;;;;;10279557;28;20048;-62
2022/05/30 02:26:11;;;;;;;8.93;6.03;;;;;;;;;;10279172;28;20079;-61
2022/05/30 02:31:09;;;;;;;8.73;6.22;;;;;;;;;;10276912;28;20060;-62
2022/05/30 02:41:27;;;;;;;7.68;6.10;;;;;;;;;;10278989;28;20079;-61
2022/05/30 02:46:31;;;;;;;8.02;5.75;;;;;;;;;;10278705;28;20079;-62
2022/05/30 02:51:31;;;;;;;8.55;5.50;;;;;;;;;;10276944;28;20049;-61
2022/05/30 02:56:30;;;;;;;9.70;8.18;;;;;;;;;;10276706;28;20053;-61
2022/05/30 03:01:31;;;;;;;10.43;6.22;;;;;;;;;;10276557;28;20040;-62
2022/05/30 03:06:31;;;;;;;5.80;4.60;;;;;;;;;;10275677;28;20502;-61
2022/05/30 03:11:29;;;;;;;7.00;5.00;;;;;;;;;;10275701;28;20053;-62
2022/05/30 03:16:28;;;;;;;11.95;5.22;;;;;;;;;;10275761;28;20049;-62
2022/05/30 03:21:26;;;;;;;8.00;6.03;;;;;;;;;;10275880;28;20501;-62
2022/05/30 03:26:26;;;;;;;16.35;6.82;;;;;;;;;;10275502;28;20057;-63
2022/05/30 03:31:25;;;;;;;10.27;7.13;;;;;;;;;;10275148;28;20163;-62
2022/05/30 03:36:25;;;;;;;6.60;5.80;;;;;;;;;;10275184;28;20052;-62
2022/05/30 03:41:27;;;;;;;16.30;12.10;;;;;;;;;;10278337;28;20045;-62
2022/05/30 03:46:39;;;;;;;10.85;7.72;;;;;;;;;;10275167;28;20503;-62
2022/05/30 03:51:37;;;;;;;8.23;6.78;;;;;;;;;;10274767;28;20052;-62
2022/05/30 03:56:37;;;;;;;5.93;5.13;;;;;;;;;;10274703;28;20049;-62
2022/05/30 04:01:37;;;;;;;6.22;5.53;;;;;;;;;;10274705;28;20052;-62
2022/05/30 04:06:36;;;;;;;19.73;6.80;;;;;;;;;;10274678;28;20088;-62
2022/05/30 04:11:34;;;;;;;37.40;30.98;;;;;;;;;;10275838;28;20076;-62
2022/05/30 04:16:43;;;;;;;12.18;8.13;;;;;;;;;;10277645;28;20060;-62
2022/05/30 04:21:43;;;;;;;9.07;7.03;;;;;;;;;;10275728;28;20409;-62
2022/05/30 04:26:45;;;;;;;12.52;10.35;;;;;;;;;;10274349;28;20640;-63
2022/05/30 04:31:45;;;;;;;8.57;7.47;;;;;;;;;;10274570;28;20099;-62
2022/05/30 04:36:44;;;;;;;10.63;7.25;;;;;;;;;;10273842;28;20064;-62
2022/05/30 04:41:43;;;;;;;13.48;7.65;;;;;;;;;;10273870;28;20045;-63
2022/05/30 04:47:01;;;;;;;13.15;9.82;;;;;;;;;;10269015;28;20506;-63
2022/05/30 04:52:00;;;;;;;10.88;9.75;;;;;;;;;;10274462;28;20494;-62
2022/05/30 04:56:58;;;;;;;13.63;10.55;;;;;;;;;;10281070;28;20045;-62
2022/05/30 05:01:59;;;;;;;14.80;10.98;;;;;;;;;;10280154;28;20525;-63
2022/05/30 05:07:02;;;;;;;14.15;11.77;;;;;;;;;;10278554;28;20072;-63
2022/05/30 05:12:01;;;;;;;15.00;13.40;;;;;;;;;;10279771;28;20516;-62
2022/05/30 05:17:21;;;;;;;18.35;13.80;;;;;;;;;;10276039;28;20083;-63
2022/05/30 05:22:21;;;;;;;17.67;13.73;;;;;;;;;;10279557;28;20052;-63
2022/05/30 05:27:19;;;;;;;14.38;12.82;;;;;;;;;;10280521;28;20095;-63
2022/05/30 05:32:19;;;;;;;16.77;14.85;;;;;;;;;;10273073;28;20045;-63
2022/05/30 05:37:18;;;;;;;21.38;15.75;;;;;;;;;;10274846;28;20048;-63
2022/05/30 05:42:43;;;;;;;15.00;13.38;;;;;;;;;;10278395;28;20088;-63
2022/05/30 05:47:44;;;;;;;15.40;13.80;;;;;;;;;;10276988;28;20099;-63
2022/05/30 05:52:43;;;;;;;17.77;14.50;;;;;;;;;;10272043;28;20048;-62
2022/05/30 05:57:47;;;;;;;14.30;12.87;;;;;;;;;;10266333;28;20064;-63
2022/05/30 06:02:47;;;;;;;13.38;12.07;;;;;;;;;;10277226;28;20053;-63
2022/05/30 06:07:52;;;;;;;13.73;12.38;;;;;;;;;;10275629;28;20049;-63
2022/05/30 06:13:05;;;;;;;15.60;13.18;;;;;;;;;;10271348;28;20314;-63
2022/05/30 06:18:04;;;;;;;16.40;14.13;;;;;;;;;;10267414;28;20087;-64
2022/05/30 06:23:08;;;;;;;19.02;15.35;;;;;;;;;;10249098;28;20486;-63
2022/05/30 06:28:26;;;;;;;14.88;12.07;;;;;;;;;;10238315;28;20081;-63
2022/05/30 06:33:35;;;;;;;19.33;12.75;;;;;;;;;;10236771;28;20049;-63
2022/05/30 06:38:39;;;;;;;19.48;12.52;;;;;;;;;;10232889;28;20093;-63
2022/05/30 06:43:53;;;;;;;18.83;12.43;;;;;;;;;;10236264;28;20064;-63
2022/05/30 06:49:17;;;;;;;15.57;11.82;;;;;;;;;;10244343;28;20085;-60
2022/05/30 06:54:21;;;;;;;18.03;11.07;;;;;;;;;;10236216;28;20062;-60
2022/05/30 06:59:21;;;;;;;16.05;11.65;;;;;;;;;;10236323;28;20058;-64
2022/05/30 07:04:19;;;;;;;18.77;14.00;;;;;;;;;;10236196;28;20084;-64
2022/05/30 07:09:38;;;;;;;14.65;13.15;;;;;;;;;;10235581;28;20088;-64
2022/05/30 07:14:48;;;;;;;15.05;11.45;;;;;;;;;;10236534;28;20049;-63
2022/05/30 07:19:47;;;;;;;11.35;9.73;;;;;;;;;;10235746;28;20041;-63
2022/05/30 07:24:49;;;;;;;9.70;8.70;;;;;;;;;;10235197;28;20053;-63
2022/05/30 07:30:09;;;;;;;11.88;10.18;;;;;;;;;;10240175;28;20056;-63
2022/05/30 07:35:43;;;;;;;10.63;9.48;;;;;;;;;;10236934;28;20100;-64
2022/05/30 07:41:11;;;;;;;13.50;8.15;;;;;;;;;;10237054;28;20088;-63
2022/05/30 07:46:16;;;;;;;11.80;8.65;;;;;;;;;;10234472;28;20153;-64
2022/05/30 07:51:33;;;;;;;11.65;10.48;;;;;;;;;;10233641;28;20057;-63
2022/05/30 07:56:48;;;;;;;10.93;9.38;;;;;;;;;;10234485;28;20058;-63
2022/05/30 08:01:48;;;;;;;9.15;8.23;;;;;;;;;;10234320;28;20580;-63
2022/05/30 08:06:46;;;;;;;9.32;8.40;;;;;;;;;;10233230;28;20049;-63
2022/05/30 08:11:44;;;;;;;9.50;7.53;;;;;;;;;;10236056;28;20493;-63
2022/05/30 08:17:04;;;;;;;6.70;6.10;;;;;;;;;;10234053;28;20510;-63
2022/05/30 08:22:04;;;;;;;11.20;6.18;;;;;;;;;;10233967;28;20405;-63
2022/05/30 08:27:03;;;;;;;8.25;6.18;;;;;;;;;;10235899;28;20056;-64
2022/05/30 08:32:12;;;;;;;8.63;6.38;;;;;;;;;;10241783;28;20064;-63
2022/05/30 08:37:30;;;;;;;7.63;6.93;;;;;;;;;;10247957;28;20053;-63
2022/05/30 08:42:31;;;;;;;8.32;7.13;;;;;;;;;;10240862;28;20061;-63
2022/05/30 08:47:51;;;;;;;10.07;7.28;;;;;;;;;;10246779;28;20084;-63
2022/05/30 08:53:00;;;;;;;7.90;7.10;;;;;;;;;;10241046;28;20069;-64
2022/05/30 08:58:03;;;;;;;8.75;7.85;;;;;;;;;;10241000;28;20045;-63
2022/05/30 09:03:07;;;;;;;9.80;7.15;;;;;;;;;;10239886;28;20072;-63
2022/05/30 09:08:07;;;;;;;6.50;5.90;;;;;;;;;;10241432;28;20076;-64
2022/05/30 09:13:14;;;;;;;8.63;6.35;;;;;;;;;;10240263;28;20049;-63
2022/05/30 09:18:46;;;;;;;15.30;8.13;;;;;;;;;;10240869;28;20045;-63
2022/05/30 09:23:44;;;;;;;8.35;7.55;;;;;;;;;;10239303;28;20057;-63
2022/05/30 09:28:44;;;;;;;11.05;7.65;;;;;;;;;;10239535;28;20513;-63
2022/05/30 09:34:22;;;;;;;10.32;5.63;;;;;;;;;;10242503;28;20053;-63
2022/05/30 09:39:46;;;;;;;6.07;5.55;;;;;;;;;;10239238;28;20056;-63
2022/05/30 09:44:45;;;;;;;7.95;5.68;;;;;;;;;;10240143;28;20073;-63
2022/05/30 09:50:19;;;;;;;8.63;5.88;;;;;;;;;;10239769;28;20061;-63
2022/05/30 09:55:25;;;;;;;10.25;5.95;;;;;;;;;;10238834;28;20227;-63
2022/05/30 10:00:35;;;;;;;8.70;5.85;;;;;;;;;;10238124;28;20046;-64
2022/05/30 10:05:36;;;;;;;7.90;6.15;;;;;;;;;;10237798;28;20104;-63
2022/05/30 10:10:40;;;;;;;8.27;6.30;;;;;;;;;;10237685;28;20457;-63
2022/05/30 10:15:43;;;;;;;7.47;5.43;;;;;;;;;;10237744;28;20057;-63
2022/05/30 10:20:48;;;;;;;5.93;5.32;;;;;;;;;;10237848;28;20050;-63
2022/05/30 10:32:06;;;;;;;7.68;5.65;;;;;;;;;;10234035;28;20088;-63
2022/05/30 10:37:13;;;;;;;10.85;5.35;;;;;;;;;;10226993;28;20053;-64
2022/05/30 10:42:16;;;;;;;11.20;5.97;;;;;;;;;;10236804;28;20049;-63
2022/05/30 10:47:18;;;;;;;6.30;5.70;;;;;;;;;;10236511;28;20131;-63
2022/05/30 10:52:26;;;;;;;7.50;4.72;;;;;;;;;;10236005;28;20053;-64
2022/05/30 10:57:32;;;;;;;6.77;4.80;;;;;;;;;;10236437;28;20427;-63
2022/05/30 11:02:37;;;;;;;8.38;5.22;;;;;;;;;;10235166;28;20049;-63
2022/05/30 11:07:41;;;;;;;9.18;5.07;;;;;;;;;;10235997;28;20045;-64
2022/05/30 11:12:44;;;;;;;11.40;4.88;;;;;;;;;;10235814;28;20049;-63
2022/05/30 11:17:46;;;;;;;8.05;4.93;;;;;;;;;;10235099;28;20146;-63
2022/05/30 11:23:19;;;;;;;8.35;5.13;;;;;;;;;;10236034;28;20053;-63
2022/05/30 11:28:20;;;;;;;9.70;4.63;;;;;;;;;;10236108;28;20085;-64
2022/05/30 11:33:47;;;;;;;5.70;5.03;;;;;;;;;;10235776;28;20045;-64
2022/05/30 11:38:57;;;;;;;6.57;4.88;;;;;;;;;;10236013;28;20096;-63
2022/05/30 11:44:04;;;;;;;4.95;4.50;;;;;;;;;;10235844;28;20041;-64
2022/05/30 11:49:05;;;;;;;6.13;4.32;;;;;;;;;;10236133;28;20076;-63
2022/05/30 11:54:18;;;;;;;6.88;4.22;;;;;;;;;;10235538;28;20072;-63
2022/05/30 11:59:28;;;;;;;5.35;4.85;;;;;;;;;;10235351;28;20088;-64
2022/05/30 12:04:53;;;;;;;4.57;4.00;;;;;;;;;;10235232;28;20057;-63
2022/05/30 12:09:57;;;;;;;5.63;4.30;;;;;;;;;;10199948;28;20077;-64
2022/05/30 12:15:14;;;;;;;4.37;3.97;;;;;;;;;;10235579;28;20462;-64
2022/05/30 12:25:46;;;;;;;3.75;3.45;;;;;;;;;;10233393;28;20514;-64
2022/05/30 12:30:47;;;;;;;5.85;4.35;;;;;;;;;;10234973;28;20081;-64
2022/05/30 12:35:45;;;;;;;11.35;4.88;;;;;;;;;;10235020;28;20042;-64
2022/05/30 12:40:54;;;;;;;10.82;4.18;;;;;;;;;;10234990;28;20041;-63
2022/05/30 12:46:10;;;;;;;7.28;5.00;;;;;;;;;;10235002;28;20091;-64
2022/05/30 12:51:13;;;;;;;5.68;4.20;;;;;;;;;;10235229;28;20068;-63
2022/05/30 12:56:16;;;;;;;10.48;4.07;;;;;;;;;;10234797;28;20053;-63
2022/05/30 13:01:22;;;;;;;7.40;5.10;;;;;;;;;;10234629;28;20057;-63
2022/05/30 13:06:22;;;;;;;7.93;4.07;;;;;;;;;;10234956;28;20077;-63
2022/05/30 13:11:30;;;;;;;8.68;4.38;;;;;;;;;;10234593;28;20052;-63
2022/05/30 13:16:34;;;;;;;5.32;4.07;;;;;;;;;;10241937;28;20069;-64
2022/05/30 13:21:33;;;;;;;4.18;3.63;;;;;;;;;;10241723;28;20049;-64
2022/05/30 13:26:33;;;;;;;6.28;3.78;;;;;;;;;;10240642;28;20107;-63
2022/05/30 13:31:32;;;;;;;7.43;3.65;;;;;;;;;;10241378;28;20199;-63
2022/05/30 13:36:32;;;;;;;7.25;4.80;;;;;;;;;;10240764;28;20053;-64
2022/05/30 13:41:35;;;;;;;6.13;4.68;;;;;;;;;;10239892;28;20164;-63
2022/05/30 13:46:43;;;;;;;6.22;3.97;;;;;;;;;;10240649;28;20077;-63
2022/05/30 13:51:43;;;;;;;7.80;4.63;;;;;;;;;;10240646;28;20081;-63
2022/05/30 13:56:43;;;;;;;7.70;4.50;;;;;;;;;;10240674;28;20059;-63
2022/05/30 14:01:42;;;;;;;6.53;4.30;;;;;;;;;;10239912;28;20050;-59
2022/05/30 14:06:43;;;;;;;4.93;4.47;;;;;;;;;;10239787;28;20087;-63
2022/05/30 14:11:43;;;;;;;9.20;3.45;;;;;;;;;;10239974;28;20064;-63
2022/05/30 14:16:43;;;;;;;6.95;3.65;;;;;;;;;;10239749;28;20046;-63
2022/05/30 14:21:49;;;;;;;9.95;4.50;;;;;;;;;;10239105;28;20045;-64
2022/05/30 14:26:48;;;;;;;4.95;4.10;;;;;;;;;;10238571;28;20090;-64
2022/05/30 14:32:00;;;;;;;6.00;4.25;;;;;;;;;;10238822;28;20080;-63
2022/05/30 14:36:59;;;;;;;6.43;5.07;;;;;;;;;;10238889;28;20076;-64
2022/05/30 14:41:59;;;;;;;7.30;4.72;;;;;;;;;;10238733;28;20046;-63
2022/05/30 14:46:58;;;;;;;8.32;6.18;;;;;;;;;;10238607;28;20165;-63
2022/05/30 14:51:59;;;;;;;5.78;4.22;;;;;;;;;;10238116;28;20211;-63
2022/05/30 14:56:57;;;;;;;5.75;4.63;;;;;;;;;;10237849;28;20057;-64
2022/05/30 15:01:57;;;;;;;12.00;5.13;;;;;;;;;;10237951;28;20069;-62
2022/05/30 15:06:59;;;;;;;7.45;5.70;;;;;;;;;;10237773;28;20108;-63
2022/05/30 15:11:57;;;;;;;5.90;5.13;;;;;;;;;;10237666;28;20053;-63
2022/05/30 15:16:58;;;;;;;6.30;5.70;;;;;;;;;;10237550;28;20049;-62
2022/05/30 15:21:59;;;;;;;9.27;6.72;;;;;;;;;;10236999;28;20060;-62
2022/05/30 15:26:58;;;;;;;7.03;5.10;;;;;;;;;;10236633;28;20053;-63
2022/05/30 15:31:58;;;;;;;4.70;4.25;;;;;;;;;;10236914;28;20054;-63
2022/05/30 15:36:59;;;;;;;4.70;3.80;;;;;;;;;;10235567;28;20041;-63
2022/05/30 15:42:00;;;;;;;10.70;5.18;;;;;;;;;;10235524;28;20030;-63
2022/05/30 15:46:59;;;;;;;4.68;4.18;;;;;;;;;;10236688;28;20045;-63
2022/05/30 15:52:02;;;;;;;3.65;3.33;;;;;;;;;;10234255;28;20052;-64
2022/05/30 15:57:18;;;;;;;5.85;4.45;;;;;;;;;;10236421;28;20041;-64
2022/05/30 16:02:17;;;;;;;6.00;3.75;;;;;;;;;;10235590;28;20049;-62
2022/05/30 16:07:17;;;;;;;6.00;3.22;;;;;;;;;;10236001;28;20084;-63
2022/05/30 16:12:19;;;;;;;4.20;3.70;;;;;;;;;;10235803;28;20053;-63
2022/05/30 16:17:18;;;;;;;3.85;2.90;;;;;;;;;;10235566;28;20533;-63
2022/05/30 16:22:21;;;;;;;4.05;3.58;;;;;;;;;;10235671;28;20041;-63
2022/05/30 16:27:20;;;;;;;4.57;4.18;;;;;;;;;;10235323;28;20103;-63
2022/05/30 16:32:18;;;;;;;4.35;3.05;;;;;;;;;;10235170;28;20060;-64
2022/05/30 16:37:20;;;;;;;7.45;4.63;;;;;;;;;;10235267;28;20045;-63
2022/05/30 16:42:18;;;;;;;6.82;3.78;;;;;;;;;;10235138;28;20131;-62
2022/05/30 16:47:17;;;;;;;7.47;3.95;;;;;;;;;;10236642;28;20080;-64
2022/05/30 16:52:17;;;;;;;5.20;3.42;;;;;;;;;;10242947;28;20076;-64
2022/05/30 16:57:17;;;;;;;6.18;2.80;;;;;;;;;;10242795;28;20057;-64
2022/05/30 17:02:15;;;;;;;4.65;3.03;;;;;;;;;;10242486;28;20045;-64
2022/05/30 17:07:14;;;;;;;5.43;3.22;;;;;;;;;;10242309;28;20054;-64
2022/05/30 17:12:13;;;;;;;8.68;3.83;;;;;;;;;;10241869;28;20046;-64
2022/05/30 17:17:14;;;;;;;8.00;5.07;;;;;;;;;;10241683;28;20033;-64
2022/05/30 17:22:12;;;;;;;6.07;4.25;;;;;;;;;;10240403;28;20049;-64
2022/05/30 17:32:28;;;;;;;6.70;4.18;;;;;;;;;;10240091;28;20045;-65
2022/05/30 17:37:27;;;;;;;6.32;3.35;;;;;;;;;;10239802;28;20073;-64
2022/05/30 17:42:26;;;;;;;5.63;3.47;;;;;;;;;;10240512;28;20053;-64
2022/05/30 17:47:27;;;;;;;12.02;5.68;;;;;;;;;;10239689;28;20041;-64
2022/05/30 17:52:30;;;;;;;7.00;4.90;;;;;;;;;;10239523;28;20083;-64
2022/05/30 17:57:29;;;;;;;8.23;6.13;;;;;;;;;;10239151;28;20045;-65
2022/05/30 18:02:28;;;;;;;11.23;6.97;;;;;;;;;;10237761;28;20046;-65
2022/05/30 18:07:35;;;;;;;12.30;6.28;;;;;;;;;;10239696;28;20049;-64
2022/05/30 18:12:36;;;;;;;6.43;5.10;;;;;;;;;;10239401;28;20462;-65
2022/05/30 18:17:41;;;;;;;9.07;7.10;;;;;;;;;;10239144;28;20080;-64
2022/05/30 18:23:00;;;;;;;7.65;5.28;;;;;;;;;;10238203;28;20039;-64
2022/05/30 18:28:01;;;;;;;7.07;5.50;;;;;;;;;;10233372;28;20081;-63
2022/05/30 18:33:04;;;;;;;11.90;5.18;;;;;;;;;;10237421;28;20049;-64
2022/05/30 18:38:09;;;;;;;8.10;4.30;;;;;;;;;;10238201;28;20986;-63
2022/05/30 18:43:12;;;;;;;5.95;4.30;;;;;;;;;;10250064;28;20085;-64
2022/05/30 18:48:12;;;;;;;6.55;3.88;;;;;;;;;;10267255;28;20103;-64
2022/05/30 18:53:11;;;;;;;5.07;4.57;;;;;;;;;;10277584;28;20505;-64
2022/05/30 18:58:13;;;;;;;7.25;4.22;;;;;;;;;;10277347;28;20514;-64
2022/05/30 19:03:13;;;;;;;7.93;5.38;;;;;;;;;;10277503;28;20076;-64
2022/05/30 19:08:12;;;;;;;6.03;3.42;;;;;;;;;;10268125;28;20076;-63
2022/05/30 19:13:14;;;;;;;16.85;9.15;;;;;;;;;;10275543;28;20075;-64
2022/05/30 19:18:16;;;;;;;5.13;4.22;;;;;;;;;;10275446;28;20048;-63
2022/05/30 19:23:14;;;;;;;4.93;3.60;;;;;;;;;;10254292;28;20087;-63
2022/05/30 19:28:20;;;;;;;5.22;3.13;;;;;;;;;;10243066;28;20084;-63
2022/05/30 19:33:19;;;;;;;6.03;3.20;;;;;;;;;;10273575;28;20057;-63
2022/05/30 19:38:19;;;;;;;6.85;3.58;;;;;;;;;;10257007;28;20474;-63
2022/05/30 19:43:18;;;;;;;6.70;4.47;;;;;;;;;;10235639;28;20045;-63
2022/05/30 19:48:22;;;;;;;7.65;4.57;;;;;;;;;;10247695;28;20475;-63
2022/05/30 19:53:20;;;;;;;6.13;4.00;;;;;;;;;;10274787;28;20069;-63
2022/05/30 19:58:20;;;;;;;5.90;4.03;;;;;;;;;;10269614;28;20068;-64
2022/05/30 20:03:18;;;;;;;4.93;3.53;;;;;;;;;;10274351;28;20045;-64
2022/05/30 20:08:17;;;;;;;3.92;2.90;;;;;;;;;;10275141;28;20486;-64
2022/05/30 20:13:15;;;;;;;7.18;3.75;;;;;;;;;;10268871;28;20077;-64
2022/05/30 20:18:35;;;;;;;4.78;3.70;;;;;;;;;;10265326;28;20075;-64
2022/05/30 20:23:34;;;;;;;6.50;3.72;;;;;;;;;;10277572;28;20068;-64
2022/05/30 20:28:32;;;;;;;8.32;4.25;;;;;;;;;;10282666;28;20467;-64
2022/05/30 20:33:30;;;;;;;6.50;3.70;;;;;;;;;;10282256;28;20072;-64
2022/05/30 20:38:30;;;;;;;6.93;3.53;;;;;;;;;;10281572;28;20060;-64
2022/05/30 20:43:28;;;;;;;3.42;3.13;;;;;;;;;;10281386;28;20473;-64
2022/05/30 20:48:27;;;;;;;5.68;3.47;;;;;;;;;;10281423;28;20044;-64
2022/05/30 20:53:26;;;;;;;8.35;3.22;;;;;;;;;;10281211;28;20045;-63
2022/05/30 20:58:28;;;;;;;4.97;3.22;;;;;;;;;;10281348;28;20048;-63
2022/05/30 21:03:26;;;;;;;3.33;2.95;;;;;;;;;;10282437;28;20060;-64
2022/05/30 21:08:25;;;;;;;3.33;3.08;;;;;;;;;;10281844;28;20049;-64
2022/05/30 21:13:23;;;;;;;5.70;5.13;;;;;;;;;;10281543;28;20056;-63
2022/05/30 21:18:28;;;;;;;9.65;4.78;;;;;;;;;;10281810;28;20041;-63
2022/05/30 21:23:26;;;;;;;4.75;3.85;;;;;;;;;;10281195;28;20486;-64
2022/05/30 21:28:25;;;;;;;3.85;3.15;;;;;;;;;;10280981;28;20064;-64
2022/05/30 21:33:27;;;;;;;3.45;3.15;;;;;;;;;;10281054;28;20087;-64
2022/05/30 21:38:27;;;;;;;9.20;3.25;;;;;;;;;;10280828;28;20045;-64
2022/05/30 21:43:25;;;;;;;5.47;3.42;;;;;;;;;;10280492;28;20045;-64
2022/05/30 21:48:25;;;;;;;6.28;3.30;;;;;;;;;;10280265;28;20045;-64
2022/05/30 21:53:23;;;;;;;4.20;3.00;;;;;;;;;;10280535;28;20068;-64
2022/05/30 21:58:21;;;;;;;5.97;3.85;;;;;;;;;;10281082;28;20437;-64
2022/05/30 22:03:21;;;;;;;5.95;3.38;;;;;;;;;;10280146;28;20100;-63
2022/05/30 22:08:22;;;;;;;6.45;3.13;;;;;;;;;;10279434;28;20450;-63
2022/05/30 22:13:20;;;;;;;5.28;3.25;;;;;;;;;;10279543;28;20080;-63
2022/05/30 22:18:18;;;;;;;5.88;3.50;;;;;;;;;;10279387;28;20075;-63
2022/05/30 22:23:17;;;;;;;4.53;3.22;;;;;;;;;;10279656;28;20422;-63
2022/05/30 22:28:16;;;;;;;4.53;2.80;;;;;;;;;;10278699;28;20478;-63
2022/05/30 22:33:15;;;;;;;3.78;3.40;;;;;;;;;;10278705;28;20080;-64
2022/05/30 22:38:14;;;;;;;6.22;3.63;;;;;;;;;;10277407;28;20330;-64
2022/05/30 22:43:13;;;;;;;4.72;3.25;;;;;;;;;;10278218;28;20049;-63
2022/05/30 22:48:14;;;;;;;4.13;3.20;;;;;;;;;;10277955;28;20410;-62
2022/05/30 22:53:13;;;;;;;4.25;3.42;;;;;;;;;;10277833;28;20465;-63
2022/05/30 22:58:11;;;;;;;3.50;3.20;;;;;;;;;;10277913;28;20478;-65
2022/05/30 23:03:10;;;;;;;4.75;3.10;;;;;;;;;;10277245;28;20072;-63
2022/05/30 23:08:10;;;;;;;4.38;3.35;;;;;;;;;;10277384;28;20060;-62
2022/05/30 23:13:11;;;;;;;4.47;3.17;;;;;;;;;;10277696;28;20522;-63
2022/05/30 23:18:09;;;;;;;4.65;3.25;;;;;;;;;;10277575;28;20080;-63
2022/05/30 23:23:08;;;;;;;3.58;3.28;;;;;;;;;;10276873;28;20083;-63
2022/05/30 23:28:09;;;;;;;3.75;3.30;;;;;;;;;;10276532;28;20086;-63
2022/05/30 23:33:08;;;;;;;4.65;3.60;;;;;;;;;;10276353;28;20073;-64
2022/05/30 23:38:06;;;;;;;3.90;3.35;;;;;;;;;;10276198;28;20048;-63
2022/05/30 23:48:23;;;;;;;6.68;3.30;;;;;;;;;;10275986;28;20048;-63
2022/05/30 23:53:22;;;;;;;3.92;3.20;;;;;;;;;;10275362;28;20080;-64
2022/05/30 23:58:20;;;;;;;4.70;3.13;;;;;;;;;;10274958;28;20478;-63
